createdAt,value
2023-08-15T00:00:21.868Z,5.80
2023-08-15T00:01:21.872Z,7.40
2023-08-15T00:02:21.846Z,7.10
2023-08-15T00:03:21.879Z,9.10
2023-08-15T00:04:21.817Z,6.20
2023-08-15T00:05:21.804Z,6.20
2023-08-15T00:06:21.805Z,5.20
2023-08-15T00:07:22.055Z,6.20
2023-08-15T00:08:21.783Z,4.30
2023-08-15T00:09:21.763Z,10.10
2023-08-15T00:10:21.756Z,5.90
2023-08-15T00:11:21.746Z,5.40
2023-08-15T00:12:21.735Z,6.80
2023-08-15T00:13:21.714Z,7.90
2023-08-15T00:14:21.752Z,7.00
2023-08-15T00:15:21.700Z,6.50
2023-08-15T00:16:21.729Z,7.70
2023-08-15T00:17:21.873Z,6.40
2023-08-15T00:18:21.664Z,5.70
2023-08-15T00:19:21.648Z,5.20
2023-08-15T00:20:21.652Z,4.70
2023-08-15T00:21:21.630Z,6.50
2023-08-15T00:22:21.623Z,6.40
2023-08-15T00:23:21.653Z,6.50
2023-08-15T00:24:21.612Z,4.60
2023-08-15T00:25:21.596Z,7.90
2023-08-15T00:26:21.582Z,6.40
2023-08-15T00:27:21.819Z,7.50
2023-08-15T00:28:21.561Z,9.10
2023-08-15T00:29:21.549Z,8.10
2023-08-15T00:30:21.548Z,7.70
2023-08-15T00:31:21.550Z,4.50
2023-08-15T00:32:21.517Z,5.30
2023-08-15T00:33:21.499Z,7.30
2023-08-15T00:34:21.501Z,6.90
2023-08-15T00:35:21.478Z,6.60
2023-08-15T00:36:21.475Z,7.00
2023-08-15T00:37:21.614Z,4.90
2023-08-15T00:38:21.494Z,7.60
2023-08-15T00:39:21.444Z,7.50
2023-08-15T00:40:21.431Z,5.20
2023-08-15T00:41:21.422Z,5.70
2023-08-15T00:42:21.407Z,4.90
2023-08-15T00:43:21.408Z,5.10
2023-08-15T00:44:21.392Z,6.70
2023-08-15T00:45:21.395Z,6.90
2023-08-15T00:46:21.401Z,5.50
2023-08-15T00:47:21.645Z,7.30
2023-08-15T00:48:21.342Z,5.40
2023-08-15T00:49:21.333Z,6.40
2023-08-15T00:50:21.321Z,6.20
2023-08-15T00:51:21.306Z,5.80
2023-08-15T00:52:21.296Z,6.10
2023-08-15T00:53:21.293Z,6.10
2023-08-15T00:54:21.285Z,7.40
2023-08-15T00:55:21.256Z,6.20
2023-08-15T00:56:21.254Z,6.60
2023-08-15T00:57:21.481Z,6.00
2023-08-15T00:58:21.241Z,6.00
2023-08-15T00:59:21.220Z,7.10
2023-08-15T01:00:21.242Z,6.50
2023-08-15T01:01:21.216Z,6.50
2023-08-15T01:02:21.204Z,5.00
2023-08-15T01:03:21.218Z,5.20
2023-08-15T01:04:21.172Z,9.00
2023-08-15T01:05:21.154Z,5.30
2023-08-15T01:06:21.142Z,6.20
2023-08-15T01:07:21.309Z,5.00
2023-08-15T01:08:21.129Z,4.60
2023-08-15T01:09:21.105Z,5.00
2023-08-15T01:10:21.110Z,5.10
2023-08-15T01:11:21.083Z,5.40
2023-08-15T01:12:21.132Z,6.30
2023-08-15T01:13:21.084Z,6.40
2023-08-15T01:14:21.097Z,6.30
2023-08-15T01:15:21.038Z,6.00
2023-08-15T01:16:21.057Z,4.60
2023-08-15T01:17:21.219Z,6.40
2023-08-15T01:18:21.010Z,6.20
2023-08-15T01:19:20.992Z,7.00
2023-08-15T01:20:20.985Z,6.10
2023-08-15T01:21:20.983Z,7.10
2023-08-15T01:22:20.981Z,5.10
2023-08-15T01:23:20.959Z,5.40
2023-08-15T01:24:20.946Z,5.30
2023-08-15T01:25:20.931Z,6.00
2023-08-15T01:26:20.955Z,5.70
2023-08-15T01:27:21.188Z,7.70
2023-08-15T01:28:20.897Z,5.30
2023-08-15T01:29:20.884Z,5.30
2023-08-15T01:30:20.874Z,6.10
2023-08-15T01:31:20.873Z,6.60
2023-08-15T01:32:20.865Z,7.90
2023-08-15T01:33:20.863Z,6.30
2023-08-15T01:34:20.835Z,5.20
2023-08-15T01:35:20.845Z,6.10
2023-08-15T01:36:20.821Z,5.90
2023-08-15T01:37:21.029Z,7.40
2023-08-15T01:38:20.786Z,8.10
2023-08-15T01:39:20.776Z,5.70
2023-08-15T01:40:20.774Z,7.70
2023-08-15T01:41:20.747Z,5.20
2023-08-15T01:42:20.741Z,5.20
2023-08-15T01:43:20.726Z,5.80
2023-08-15T01:44:20.724Z,8.60
2023-08-15T01:45:20.719Z,4.80
2023-08-15T01:46:20.768Z,7.10
2023-08-15T01:47:20.804Z,4.40
2023-08-15T01:48:20.675Z,5.90
2023-08-15T01:49:20.671Z,5.70
2023-08-15T01:50:20.669Z,5.60
2023-08-15T01:51:20.649Z,5.70
2023-08-15T01:52:20.805Z,5.50
2023-08-15T01:53:20.620Z,5.20
2023-08-15T01:54:20.623Z,6.90
2023-08-15T01:55:20.607Z,5.20
2023-08-15T01:56:20.589Z,8.10
2023-08-15T01:57:20.831Z,5.10
2023-08-15T01:58:20.562Z,6.00
2023-08-15T01:59:20.558Z,5.70
2023-08-15T02:00:20.545Z,8.00
2023-08-15T02:01:20.555Z,7.60
2023-08-15T02:02:20.610Z,7.40
2023-08-15T02:03:20.502Z,6.40
2023-08-15T02:04:20.508Z,8.20
2023-08-15T02:05:20.505Z,6.60
2023-08-15T02:06:20.478Z,5.60
2023-08-15T02:07:20.704Z,5.30
2023-08-15T02:08:20.463Z,8.40
2023-08-15T02:09:20.448Z,5.20
2023-08-15T02:10:20.429Z,5.90
2023-08-15T02:11:20.464Z,5.80
2023-08-15T02:12:20.406Z,5.70
2023-08-15T02:13:20.481Z,6.50
2023-08-15T02:14:20.397Z,7.50
2023-08-15T02:15:20.373Z,7.50
2023-08-15T02:16:20.416Z,6.30
2023-08-15T02:17:20.636Z,7.00
2023-08-15T02:18:20.354Z,6.40
2023-08-15T02:19:20.326Z,7.00
2023-08-15T02:20:20.321Z,6.00
2023-08-15T02:21:20.314Z,6.50
2023-08-15T02:22:20.312Z,7.00
2023-08-15T02:23:20.294Z,9.20
2023-08-15T02:24:20.276Z,8.70
2023-08-15T02:25:20.286Z,8.30
2023-08-15T02:26:20.259Z,7.70
2023-08-15T02:27:20.471Z,6.70
2023-08-15T02:28:20.228Z,6.30
2023-08-15T02:29:20.217Z,9.10
2023-08-15T02:30:20.210Z,9.20
2023-08-15T02:31:20.292Z,7.40
2023-08-15T02:32:20.198Z,6.70
2023-08-15T02:33:20.191Z,8.20
2023-08-15T02:34:20.169Z,6.90
2023-08-15T02:35:20.251Z,7.80
2023-08-15T02:36:20.165Z,6.70
2023-08-15T02:37:20.475Z,7.30
2023-08-15T02:38:20.119Z,7.20
2023-08-15T02:39:20.109Z,8.00
2023-08-15T02:40:20.100Z,9.30
2023-08-15T02:41:20.097Z,8.10
2023-08-15T02:42:20.083Z,8.90
2023-08-15T02:43:20.058Z,8.00
2023-08-15T02:44:20.051Z,7.30
2023-08-15T02:45:20.045Z,8.10
2023-08-15T02:46:20.086Z,8.50
2023-08-15T02:47:20.261Z,6.80
2023-08-15T02:48:20.017Z,7.20
2023-08-15T02:49:19.997Z,9.90
2023-08-15T02:50:19.981Z,7.50
2023-08-15T02:51:19.990Z,6.40
2023-08-15T02:52:19.961Z,6.60
2023-08-15T02:53:19.956Z,8.50
2023-08-15T02:54:19.943Z,8.10
2023-08-15T02:55:19.947Z,7.90
2023-08-15T02:56:19.922Z,8.40
2023-08-15T02:57:20.141Z,6.20
2023-08-15T02:58:19.917Z,7.30
2023-08-15T02:59:19.903Z,6.70
2023-08-15T03:00:19.890Z,7.70
2023-08-15T03:01:19.902Z,7.70
2023-08-15T03:02:19.866Z,7.90
2023-08-15T03:03:19.868Z,7.90
2023-08-15T03:04:19.823Z,7.30
2023-08-15T03:05:19.829Z,9.00
2023-08-15T03:06:19.808Z,8.20
2023-08-15T03:07:20.159Z,9.60
2023-08-15T03:08:19.783Z,9.50
2023-08-15T03:09:19.791Z,7.20
2023-08-15T03:10:19.782Z,7.00
2023-08-15T03:11:19.758Z,9.90
2023-08-15T03:12:19.743Z,9.70
2023-08-15T03:13:19.731Z,7.60
2023-08-15T03:14:19.730Z,7.90
2023-08-15T03:15:19.723Z,7.30
2023-08-15T03:16:19.728Z,9.70
2023-08-15T03:17:20.166Z,10.20
2023-08-15T03:18:19.673Z,8.80
2023-08-15T03:19:19.683Z,8.30
2023-08-15T03:20:19.654Z,9.80
2023-08-15T03:21:19.643Z,7.60
2023-08-15T03:22:19.629Z,8.00
2023-08-15T03:23:19.636Z,8.40
2023-08-15T03:24:19.626Z,8.20
2023-08-15T03:25:19.604Z,8.30
2023-08-15T03:26:19.591Z,6.90
2023-08-15T03:27:19.639Z,8.30
2023-08-15T03:28:19.572Z,9.90
2023-08-15T03:29:19.570Z,9.20
2023-08-15T03:30:19.538Z,7.90
2023-08-15T03:31:19.607Z,9.20
2023-08-15T03:32:19.548Z,9.80
2023-08-15T03:33:19.518Z,8.00
2023-08-15T03:34:19.511Z,8.10
2023-08-15T03:35:22.339Z,7.80
2023-08-15T03:36:19.486Z,8.20
2023-08-15T03:37:19.713Z,9.00
2023-08-15T03:38:19.468Z,8.40
2023-08-15T03:39:19.442Z,7.50
2023-08-15T03:40:19.433Z,8.40
2023-08-15T03:41:19.426Z,8.60
2023-08-15T03:42:19.421Z,8.00
2023-08-15T03:43:19.402Z,8.00
2023-08-15T03:44:19.390Z,8.30
2023-08-15T03:45:19.454Z,8.60
2023-08-15T03:46:19.462Z,8.50
2023-08-15T03:47:19.854Z,8.70
2023-08-15T03:48:19.343Z,10.30
2023-08-15T03:49:19.330Z,8.80
2023-08-15T03:50:19.329Z,7.90
2023-08-15T03:51:38.015Z,7.20
2023-08-15T03:52:19.320Z,7.90
2023-08-15T03:53:19.285Z,8.10
2023-08-15T03:54:19.286Z,10.50
2023-08-15T03:55:19.270Z,7.80
2023-08-15T03:56:19.266Z,8.30
2023-08-15T03:57:19.547Z,7.60
2023-08-15T03:58:19.233Z,10.00
2023-08-15T03:59:19.217Z,9.00
2023-08-15T04:00:19.209Z,7.70
2023-08-15T04:01:19.252Z,9.60
2023-08-15T04:02:19.184Z,8.90
2023-08-15T04:03:19.178Z,8.00
2023-08-15T04:04:19.190Z,8.40
2023-08-15T04:05:19.161Z,7.40
2023-08-15T04:06:19.160Z,9.10
2023-08-15T04:07:19.525Z,7.20
2023-08-15T04:08:19.117Z,9.70
2023-08-15T04:09:19.104Z,6.90
2023-08-15T04:10:19.104Z,10.60
2023-08-15T04:11:19.088Z,7.90
2023-08-15T04:12:19.154Z,9.10
2023-08-15T04:13:19.062Z,7.00
2023-08-15T04:14:19.065Z,9.10
2023-08-15T04:15:19.054Z,8.50
2023-08-15T04:16:19.090Z,7.80
2023-08-15T04:17:19.233Z,8.30
2023-08-15T04:18:19.011Z,7.90
2023-08-15T04:19:19.000Z,7.40
2023-08-15T04:20:18.994Z,8.90
2023-08-15T04:21:18.976Z,9.30
2023-08-15T04:22:18.964Z,10.10
2023-08-15T04:23:18.946Z,8.30
2023-08-15T04:24:18.984Z,8.60
2023-08-15T04:25:18.938Z,7.40
2023-08-15T04:26:18.919Z,8.40
2023-08-15T04:27:19.213Z,10.10
2023-08-15T04:28:18.901Z,8.00
2023-08-15T04:29:18.889Z,10.80
2023-08-15T04:30:18.877Z,11.20
2023-08-15T04:31:18.901Z,9.90
2023-08-15T04:32:18.856Z,7.80
2023-08-15T04:33:18.838Z,9.30
2023-08-15T04:34:18.842Z,8.00
2023-08-15T04:35:18.837Z,10.70
2023-08-15T04:36:18.809Z,8.70
2023-08-15T04:37:19.116Z,12.30
2023-08-15T04:38:18.798Z,7.90
2023-08-15T04:39:18.788Z,7.60
2023-08-15T04:40:18.820Z,8.50
2023-08-15T04:41:18.760Z,10.10
2023-08-15T04:42:18.753Z,8.70
2023-08-15T04:43:18.738Z,7.80
2023-08-15T04:44:18.729Z,9.10
2023-08-15T04:45:18.708Z,11.50
2023-08-15T04:46:18.737Z,7.20
2023-08-15T04:47:18.831Z,8.00
2023-08-15T04:48:18.688Z,8.70
2023-08-15T04:49:18.665Z,7.50
2023-08-15T04:50:18.671Z,7.70
2023-08-15T04:51:18.635Z,6.80
2023-08-15T04:52:18.634Z,8.00
2023-08-15T04:53:18.625Z,8.50
2023-08-15T04:54:18.608Z,7.00
2023-08-15T04:55:18.595Z,7.40
2023-08-15T04:56:18.588Z,7.10
2023-08-15T04:57:18.826Z,9.40
2023-08-15T04:58:18.579Z,8.80
2023-08-15T04:59:18.549Z,7.30
2023-08-15T05:00:18.551Z,8.30
2023-08-15T05:01:18.561Z,6.90
2023-08-15T05:02:18.534Z,8.20
2023-08-15T05:03:18.506Z,8.80
2023-08-15T05:04:18.503Z,7.30
2023-08-15T05:05:18.518Z,10.80
2023-08-15T05:06:18.478Z,7.70
2023-08-15T05:07:18.904Z,9.10
2023-08-15T05:08:18.457Z,9.80
2023-08-15T05:09:18.460Z,8.90
2023-08-15T05:10:18.452Z,8.20
2023-08-15T05:11:18.431Z,8.90
2023-08-15T05:12:18.432Z,9.50
2023-08-15T05:13:18.399Z,11.30
2023-08-15T05:14:18.397Z,9.80
2023-08-15T05:15:18.374Z,7.30
2023-08-15T05:16:18.411Z,9.40
2023-08-15T05:17:18.773Z,8.70
2023-08-15T05:18:18.353Z,8.90
2023-08-15T05:19:18.333Z,7.60
2023-08-15T05:20:18.337Z,8.60
2023-08-15T05:21:18.318Z,8.80
2023-08-15T05:22:18.313Z,9.60
2023-08-15T05:23:18.294Z,9.60
2023-08-15T05:24:18.281Z,9.00
2023-08-15T05:25:18.281Z,9.80
2023-08-15T05:26:18.267Z,8.60
2023-08-15T05:27:18.294Z,8.50
2023-08-15T05:28:18.238Z,8.90
2023-08-15T05:29:18.226Z,12.50
2023-08-15T05:30:18.227Z,8.50
2023-08-15T05:31:18.254Z,9.10
2023-08-15T05:32:18.195Z,9.20
2023-08-15T05:33:18.186Z,8.40
2023-08-15T05:34:18.174Z,9.40
2023-08-15T05:35:18.170Z,12.90
2023-08-15T05:36:18.154Z,10.00
2023-08-15T05:37:18.284Z,12.80
2023-08-15T05:38:18.128Z,13.20
2023-08-15T05:39:18.117Z,11.70
2023-08-15T05:40:18.118Z,13.10
2023-08-15T05:41:18.100Z,11.00
2023-08-15T05:42:18.082Z,10.60
2023-08-15T05:43:18.067Z,10.20
2023-08-15T05:44:18.066Z,12.10
2023-08-15T05:45:18.044Z,12.20
2023-08-15T05:46:18.059Z,11.40
2023-08-15T05:47:18.045Z,9.90
2023-08-15T05:48:18.031Z,9.00
2023-08-15T05:49:18.010Z,10.00
2023-08-15T05:50:17.993Z,9.20
2023-08-15T05:51:17.986Z,10.70
2023-08-15T05:52:17.965Z,14.00
2023-08-15T05:53:17.972Z,17.50
2023-08-15T05:54:17.965Z,15.80
2023-08-15T05:55:17.939Z,13.10
2023-08-15T05:56:17.923Z,9.00
2023-08-15T05:57:17.927Z,9.80
2023-08-15T05:58:17.942Z,10.50
2023-08-15T05:59:17.907Z,8.80
2023-08-15T06:00:17.882Z,9.30
2023-08-15T06:01:17.928Z,10.20
2023-08-15T06:02:17.858Z,10.00
2023-08-15T06:03:26.924Z,9.70
2023-08-15T06:04:17.865Z,9.50
2023-08-15T06:05:17.836Z,7.70
2023-08-15T06:06:17.815Z,8.40
2023-08-15T06:07:17.806Z,10.30
2023-08-15T06:08:17.799Z,10.60
2023-08-15T06:09:18.905Z,9.80
2023-08-15T06:10:17.774Z,12.50
2023-08-15T06:11:17.766Z,9.90
2023-08-15T06:12:17.758Z,8.90
2023-08-15T06:13:17.868Z,7.80
2023-08-15T06:14:17.728Z,9.50
2023-08-15T06:15:17.719Z,8.30
2023-08-15T06:16:17.752Z,7.30
2023-08-15T06:17:17.715Z,8.90
2023-08-15T06:18:17.686Z,9.00
2023-08-15T06:19:17.675Z,8.90
2023-08-15T06:20:17.670Z,8.70
2023-08-15T06:21:17.657Z,9.80
2023-08-15T06:22:17.651Z,9.40
2023-08-15T06:23:17.661Z,10.50
2023-08-15T06:24:17.632Z,11.00
2023-08-15T06:25:17.630Z,9.70
2023-08-15T06:26:17.604Z,8.40
2023-08-15T06:27:17.627Z,11.60
2023-08-15T06:28:17.574Z,9.00
2023-08-15T06:29:17.576Z,10.80
2023-08-15T06:30:17.558Z,9.00
2023-08-15T06:31:17.647Z,9.00
2023-08-15T06:32:17.533Z,8.40
2023-08-15T06:33:17.532Z,8.80
2023-08-15T06:34:17.518Z,9.20
2023-08-15T06:35:17.511Z,8.70
2023-08-15T06:36:17.499Z,7.10
2023-08-15T06:37:17.487Z,7.60
2023-08-15T06:38:17.478Z,10.10
2023-08-15T06:39:17.461Z,7.60
2023-08-15T06:40:17.454Z,7.10
2023-08-15T06:41:17.447Z,7.10
2023-08-15T06:42:17.425Z,6.90
2023-08-15T06:43:17.417Z,7.10
2023-08-15T06:44:17.404Z,8.30
2023-08-15T06:45:17.434Z,7.50
2023-08-15T06:46:17.406Z,8.20
2023-08-15T06:47:17.371Z,7.90
2023-08-15T06:48:17.357Z,8.30
2023-08-15T06:49:17.354Z,7.80
2023-08-15T06:50:17.351Z,8.40
2023-08-15T06:51:17.341Z,7.30
2023-08-15T06:52:17.315Z,8.20
2023-08-15T06:53:17.317Z,7.10
2023-08-15T06:54:17.301Z,7.60
2023-08-15T06:55:17.296Z,8.40
2023-08-15T06:56:17.270Z,9.20
2023-08-15T06:57:17.261Z,12.20
2023-08-15T06:58:17.245Z,9.90
2023-08-15T06:59:17.310Z,13.00
2023-08-15T07:00:17.251Z,8.20
2023-08-15T07:01:17.255Z,7.70
2023-08-15T07:02:17.203Z,10.10
2023-08-15T07:03:17.314Z,9.30
2023-08-15T07:04:17.202Z,9.50
2023-08-15T07:05:17.179Z,9.60
2023-08-15T07:06:17.171Z,10.30
2023-08-15T07:07:17.152Z,11.10
2023-08-15T07:08:17.149Z,9.20
2023-08-15T07:09:17.142Z,8.10
2023-08-15T07:10:17.127Z,10.20
2023-08-15T07:11:17.118Z,11.80
2023-08-15T07:12:17.144Z,10.00
2023-08-15T07:13:17.097Z,9.20
2023-08-15T07:14:17.075Z,10.30
2023-08-15T07:15:17.069Z,11.20
2023-08-15T07:16:17.099Z,9.50
2023-08-15T07:17:17.049Z,11.80
2023-08-15T07:18:17.041Z,13.20
2023-08-15T07:19:17.021Z,10.80
2023-08-15T07:20:17.005Z,11.70
2023-08-15T07:21:22.320Z,11.90
2023-08-15T07:22:16.991Z,10.50
2023-08-15T07:23:16.985Z,13.70
2023-08-15T07:24:16.961Z,15.70
2023-08-15T07:25:16.957Z,11.20
2023-08-15T07:26:16.951Z,13.70
2023-08-15T07:27:16.942Z,12.30
2023-08-15T07:28:16.925Z,10.60
2023-08-15T07:29:16.913Z,12.40
2023-08-15T07:30:16.898Z,9.90
2023-08-15T07:31:16.945Z,12.30
2023-08-15T07:32:16.883Z,10.40
2023-08-15T07:33:16.878Z,9.40
2023-08-15T07:34:16.877Z,10.60
2023-08-15T07:35:16.846Z,10.30
2023-08-15T07:36:16.826Z,11.40
2023-08-15T07:37:16.835Z,12.20
2023-08-15T07:38:16.808Z,11.80
2023-08-15T07:39:16.819Z,11.50
2023-08-15T07:40:16.807Z,11.70
2023-08-15T07:41:16.793Z,11.80
2023-08-15T07:42:16.779Z,12.20
2023-08-15T07:43:16.757Z,13.00
2023-08-15T07:44:16.768Z,11.30
2023-08-15T07:45:16.736Z,14.20
2023-08-15T07:46:16.806Z,11.90
2023-08-15T07:47:16.704Z,12.80
2023-08-15T07:48:16.708Z,14.40
2023-08-15T07:49:16.689Z,13.30
2023-08-15T07:50:16.704Z,13.10
2023-08-15T07:51:16.674Z,13.00
2023-08-15T07:52:16.662Z,13.40
2023-08-15T07:53:16.642Z,13.70
2023-08-15T07:54:16.658Z,13.50
2023-08-15T07:55:16.627Z,11.50
2023-08-15T07:56:16.623Z,12.30
2023-08-15T07:57:16.598Z,11.90
2023-08-15T07:58:16.593Z,15.90
2023-08-15T07:59:16.574Z,13.70
2023-08-15T08:00:16.607Z,13.50
2023-08-15T08:01:16.580Z,15.10
2023-08-15T08:02:16.547Z,15.30
2023-08-15T08:03:16.530Z,14.90
2023-08-15T08:04:16.527Z,12.00
2023-08-15T08:05:16.538Z,13.60
2023-08-15T08:06:31.682Z,15.10
2023-08-15T08:07:16.531Z,14.90
2023-08-15T08:08:16.505Z,12.80
2023-08-15T08:09:16.477Z,12.20
2023-08-15T08:10:16.469Z,14.00
2023-08-15T08:11:16.455Z,12.80
2023-08-15T08:12:16.441Z,12.70
2023-08-15T08:13:17.218Z,14.10
2023-08-15T08:14:16.427Z,14.70
2023-08-15T08:15:16.417Z,13.80
2023-08-15T08:16:16.410Z,13.50
2023-08-15T08:17:16.387Z,12.90
2023-08-15T08:18:16.371Z,12.50
2023-08-15T08:19:16.371Z,12.90
2023-08-15T08:20:16.349Z,16.00
2023-08-15T08:21:16.346Z,13.80
2023-08-15T08:22:16.334Z,13.40
2023-08-15T08:23:16.311Z,13.30
2023-08-15T08:24:16.321Z,12.10
2023-08-15T08:25:16.289Z,15.50
2023-08-15T08:26:16.287Z,12.40
2023-08-15T08:27:16.272Z,14.20
2023-08-15T08:28:16.272Z,12.60
2023-08-15T08:29:16.261Z,13.20
2023-08-15T08:30:16.284Z,13.50
2023-08-15T08:31:16.258Z,13.10
2023-08-15T08:32:16.219Z,11.30
2023-08-15T08:33:16.227Z,11.40
2023-08-15T08:34:16.209Z,12.30
2023-08-15T08:35:16.254Z,9.40
2023-08-15T08:36:16.251Z,12.20
2023-08-15T08:37:16.165Z,8.30
2023-08-15T08:38:16.799Z,7.10
2023-08-15T08:39:29.605Z,8.00
2023-08-15T08:40:16.149Z,8.60
2023-08-15T08:41:16.130Z,8.70
2023-08-15T08:42:16.121Z,11.20
2023-08-15T08:43:16.106Z,7.30
2023-08-15T08:44:16.089Z,7.30
2023-08-15T08:45:16.153Z,9.70
2023-08-15T08:46:16.139Z,8.00
2023-08-15T08:47:16.076Z,9.60
2023-08-15T08:48:16.043Z,8.50
2023-08-15T08:49:16.047Z,8.40
2023-08-15T08:50:16.051Z,11.10
2023-08-15T08:51:16.022Z,8.50
2023-08-15T08:52:16.039Z,9.40
2023-08-15T08:53:15.997Z,7.40
2023-08-15T08:54:19.181Z,7.80
2023-08-15T08:55:15.977Z,8.30
2023-08-15T08:56:15.961Z,7.30
2023-08-15T08:57:15.954Z,8.90
2023-08-15T08:58:15.960Z,7.70
2023-08-15T08:59:15.931Z,11.30
2023-08-15T09:00:15.922Z,7.70
2023-08-15T09:01:15.950Z,11.30
2023-08-15T09:02:15.985Z,9.00
2023-08-15T09:03:16.029Z,10.30
2023-08-15T09:04:15.865Z,14.70
2023-08-15T09:05:15.867Z,11.20
2023-08-15T09:06:15.856Z,8.10
2023-08-15T09:07:15.865Z,8.30
2023-08-15T09:08:15.828Z,6.70
2023-08-15T09:09:15.833Z,10.60
2023-08-15T09:10:15.808Z,7.00
2023-08-15T09:11:15.814Z,7.10
2023-08-15T09:12:15.790Z,6.90
2023-08-15T09:13:15.784Z,6.70
2023-08-15T09:14:15.758Z,7.90
2023-08-15T09:15:15.779Z,7.50
2023-08-15T09:16:15.800Z,22.60
2023-08-15T09:17:15.755Z,8.40
2023-08-15T09:18:15.734Z,11.10
2023-08-15T09:19:15.719Z,11.70
2023-08-15T09:20:15.759Z,8.60
2023-08-15T09:21:15.689Z,7.20
2023-08-15T09:22:15.673Z,8.40
2023-08-15T09:23:15.670Z,5.40
2023-08-15T09:24:15.649Z,6.70
2023-08-15T09:25:15.658Z,4.40
2023-08-15T09:26:15.650Z,4.30
2023-08-15T09:27:15.621Z,5.60
2023-08-15T09:28:15.606Z,6.80
2023-08-15T09:29:15.611Z,8.10
2023-08-15T09:30:15.590Z,6.40
2023-08-15T09:31:15.632Z,6.30
2023-08-15T09:32:15.564Z,4.00
2023-08-15T09:33:15.560Z,3.50
2023-08-15T09:34:15.559Z,5.10
2023-08-15T09:35:15.552Z,2.70
2023-08-15T09:36:15.520Z,4.00
2023-08-15T09:37:15.511Z,3.10
2023-08-15T09:38:15.510Z,4.10
2023-08-15T09:39:15.498Z,4.20
2023-08-15T09:40:15.488Z,6.90
2023-08-15T09:41:15.473Z,5.30
2023-08-15T09:42:15.458Z,5.40
2023-08-15T09:43:15.460Z,2.30
2023-08-15T09:44:15.446Z,3.70
2023-08-15T09:45:15.443Z,3.60
2023-08-15T09:46:15.458Z,2.60
2023-08-15T09:47:15.413Z,4.60
2023-08-15T09:48:15.394Z,3.20
2023-08-15T09:49:15.383Z,3.80
2023-08-15T09:50:15.384Z,3.50
2023-08-15T09:51:15.360Z,3.90
2023-08-15T09:52:15.345Z,4.30
2023-08-15T09:53:15.356Z,2.90
2023-08-15T09:54:15.323Z,4.00
2023-08-15T09:55:15.317Z,4.60
2023-08-15T09:56:15.303Z,2.60
2023-08-15T09:57:15.304Z,6.60
2023-08-15T09:58:15.294Z,3.90
2023-08-15T09:59:16.553Z,2.30
2023-08-15T10:00:15.302Z,6.60
2023-08-15T10:01:15.274Z,3.80
2023-08-15T10:02:15.249Z,4.10
2023-08-15T10:03:15.331Z,4.10
2023-08-15T10:04:15.224Z,2.80
2023-08-15T10:05:15.225Z,4.20
2023-08-15T10:06:15.206Z,2.50
2023-08-15T10:07:15.199Z,3.10
2023-08-15T10:08:15.174Z,3.80
2023-08-15T10:09:15.171Z,3.80
2023-08-15T10:10:15.185Z,3.70
2023-08-15T10:11:15.161Z,4.90
2023-08-15T10:12:15.159Z,6.20
2023-08-15T10:13:15.123Z,4.60
2023-08-15T10:14:15.108Z,9.70
2023-08-15T10:15:15.102Z,7.10
2023-08-15T10:16:15.121Z,5.60
2023-08-15T10:17:15.191Z,7.10
2023-08-15T10:18:15.095Z,4.90
2023-08-15T10:19:15.060Z,3.60
2023-08-15T10:20:15.048Z,4.40
2023-08-15T10:21:15.045Z,4.20
2023-08-15T10:22:15.031Z,3.40
2023-08-15T10:23:15.067Z,5.40
2023-08-15T10:24:14.996Z,5.10
2023-08-15T10:25:15.017Z,5.10
2023-08-15T10:26:14.992Z,5.00
2023-08-15T10:27:14.998Z,3.80
2023-08-15T10:28:14.962Z,4.00
2023-08-15T10:29:14.973Z,3.10
2023-08-15T10:30:14.942Z,5.80
2023-08-15T10:31:14.971Z,4.40
2023-08-15T10:32:14.912Z,4.30
2023-08-15T10:33:14.971Z,4.60
2023-08-15T10:34:14.887Z,4.40
2023-08-15T10:35:14.896Z,3.70
2023-08-15T10:36:14.864Z,4.60
2023-08-15T10:37:14.859Z,4.70
2023-08-15T10:38:14.851Z,5.30
2023-08-15T10:39:14.839Z,5.10
2023-08-15T10:40:14.851Z,5.00
2023-08-15T10:41:14.816Z,5.00
2023-08-15T10:42:14.798Z,3.80
2023-08-15T10:43:14.791Z,4.70
2023-08-15T10:44:14.788Z,5.40
2023-08-15T10:45:14.787Z,4.80
2023-08-15T10:46:14.776Z,7.30
2023-08-15T10:47:14.753Z,4.40
2023-08-15T10:48:14.798Z,5.20
2023-08-15T10:49:14.747Z,4.80
2023-08-15T10:50:14.727Z,2.40
2023-08-15T10:51:14.725Z,3.70
2023-08-15T10:52:14.687Z,4.30
2023-08-15T10:53:16.679Z,5.00
2023-08-15T10:54:14.936Z,4.90
2023-08-15T10:55:14.688Z,5.10
2023-08-15T10:56:14.675Z,4.30
2023-08-15T10:57:14.637Z,5.00
2023-08-15T10:58:14.628Z,3.50
2023-08-15T10:59:14.682Z,3.60
2023-08-15T11:00:14.599Z,3.40
2023-08-15T11:01:14.596Z,2.50
2023-08-15T11:02:14.609Z,2.60
2023-08-15T11:03:14.625Z,1.50
2023-08-15T11:04:14.563Z,3.20
2023-08-15T11:05:14.585Z,2.50
2023-08-15T11:06:14.536Z,3.10
2023-08-15T11:07:14.535Z,5.80
2023-08-15T11:08:14.524Z,3.20
2023-08-15T11:09:14.509Z,3.00
2023-08-15T11:10:14.513Z,4.60
2023-08-15T11:11:14.488Z,4.80
2023-08-15T11:12:14.498Z,3.80
2023-08-15T11:13:14.484Z,2.70
2023-08-15T11:14:14.474Z,4.20
2023-08-15T11:15:14.440Z,3.90
2023-08-15T11:16:14.463Z,3.60
2023-08-15T11:17:14.448Z,3.10
2023-08-15T11:18:14.404Z,3.00
2023-08-15T11:19:14.396Z,4.10
2023-08-15T11:20:14.383Z,3.30
2023-08-15T11:21:14.395Z,3.50
2023-08-15T11:22:14.372Z,2.70
2023-08-15T11:23:14.354Z,3.60
2023-08-15T11:24:14.351Z,2.30
2023-08-15T11:25:14.343Z,1.80
2023-08-15T11:26:14.347Z,2.20
2023-08-15T11:27:14.336Z,3.20
2023-08-15T11:28:14.326Z,1.90
2023-08-15T11:29:14.771Z,2.40
2023-08-15T11:30:14.275Z,5.70
2023-08-15T11:32:14.297Z,2.30
2023-08-15T11:33:14.247Z,2.30
2023-08-15T11:34:14.229Z,1.60
2023-08-15T11:35:14.230Z,1.80
2023-08-15T11:36:14.258Z,1.90
2023-08-15T11:37:14.202Z,1.50
2023-08-15T11:38:14.192Z,3.90
2023-08-15T11:39:14.440Z,4.10
2023-08-15T11:40:14.166Z,1.50
2023-08-15T11:41:14.170Z,2.30
2023-08-15T11:42:16.028Z,2.80
2023-08-15T11:43:14.173Z,2.60
2023-08-15T11:44:14.123Z,5.70
2023-08-15T11:45:14.130Z,2.10
2023-08-15T11:46:14.192Z,3.90
2023-08-15T11:47:14.097Z,2.40
2023-08-15T11:48:14.945Z,3.90
2023-08-15T11:49:14.077Z,5.50
2023-08-15T11:50:14.075Z,1.90
2023-08-15T11:51:14.052Z,2.60
2023-08-15T11:52:14.044Z,1.50
2023-08-15T11:53:14.046Z,3.00
2023-08-15T11:54:14.022Z,2.40
2023-08-15T11:55:14.043Z,3.00
2023-08-15T11:56:14.001Z,1.90
2023-08-15T11:57:14.057Z,3.00
2023-08-15T11:58:13.981Z,3.90
2023-08-15T11:59:13.976Z,3.10
2023-08-15T12:00:13.982Z,2.80
2023-08-15T12:01:13.985Z,1.90
2023-08-15T12:02:13.943Z,3.10
2023-08-15T12:03:14.053Z,2.30
2023-08-15T12:04:13.921Z,3.10
2023-08-15T12:05:13.910Z,4.30
2023-08-15T12:06:13.921Z,2.00
2023-08-15T12:07:13.878Z,2.40
2023-08-15T12:08:13.867Z,1.80
2023-08-15T12:09:14.115Z,2.40
2023-08-15T12:10:13.858Z,3.40
2023-08-15T12:11:13.888Z,3.00
2023-08-15T12:12:13.831Z,3.20
2023-08-15T12:13:13.827Z,4.40
2023-08-15T12:14:13.814Z,2.20
2023-08-15T12:15:13.806Z,2.30
2023-08-15T12:16:13.847Z,3.00
2023-08-15T12:17:13.784Z,2.30
2023-08-15T12:18:13.791Z,2.70
2023-08-15T12:19:13.764Z,1.30
2023-08-15T12:20:13.737Z,2.00
2023-08-15T12:21:14.241Z,2.10
2023-08-15T12:22:13.718Z,1.40
2023-08-15T12:23:22.960Z,1.50
2023-08-15T12:24:13.701Z,2.10
2023-08-15T12:25:13.693Z,2.90
2023-08-15T12:26:13.681Z,2.50
2023-08-15T12:27:13.669Z,2.00
2023-08-15T12:28:13.660Z,2.40
2023-08-15T12:29:13.937Z,2.60
2023-08-15T12:30:16.560Z,3.60
2023-08-15T12:31:13.639Z,1.80
2023-08-15T12:32:13.615Z,1.50
2023-08-15T12:33:16.066Z,3.10
2023-08-15T12:34:13.590Z,1.10
2023-08-15T12:35:13.585Z,2.20
2023-08-15T12:36:13.576Z,2.80
2023-08-15T12:37:13.583Z,3.00
2023-08-15T12:38:13.547Z,1.80
2023-08-15T12:39:13.541Z,4.00
2023-08-15T12:40:22.042Z,4.40
2023-08-15T12:41:13.523Z,1.50
2023-08-15T12:42:13.515Z,2.60
2023-08-15T12:43:13.505Z,2.80
2023-08-15T12:44:13.497Z,3.20
2023-08-15T12:45:13.483Z,1.40
2023-08-15T12:46:13.672Z,2.80
2023-08-15T12:47:13.463Z,2.30
2023-08-15T12:48:13.460Z,2.60
2023-08-15T12:49:13.433Z,2.10
2023-08-15T12:50:13.419Z,2.40
2023-08-15T12:51:13.417Z,1.50
2023-08-15T12:52:13.390Z,1.70
2023-08-15T12:53:13.394Z,3.40
2023-08-15T12:54:13.374Z,2.70
2023-08-15T12:55:13.364Z,1.80
2023-08-15T12:56:13.371Z,2.90
2023-08-15T12:57:13.346Z,2.20
2023-08-15T12:58:13.331Z,3.70
2023-08-15T12:59:13.348Z,1.80
2023-08-15T13:00:13.321Z,2.10
2023-08-15T13:01:13.324Z,2.90
2023-08-15T13:02:13.285Z,3.60
2023-08-15T13:03:13.326Z,2.10
2023-08-15T13:04:13.277Z,2.60
2023-08-15T13:05:13.314Z,2.00
2023-08-15T13:06:13.253Z,2.40
2023-08-15T13:07:13.237Z,2.20
2023-08-15T13:08:13.220Z,2.00
2023-08-15T13:09:13.211Z,2.70
2023-08-15T13:10:13.218Z,2.90
2023-08-15T13:11:13.190Z,2.30
2023-08-15T13:12:13.184Z,3.50
2023-08-15T13:13:13.178Z,4.20
2023-08-15T13:14:13.173Z,1.80